Terminal Aerodrome Forecast
Issued by NWS Milwaukee/Sullivan, WI

Home | Current Version | Previous Version | Text Only | Print | Product List | Glossary On
Versions: 1 2 3 4 5 6 7 8 9 10 11 12 13 14 15 16 17 18 19 20 21 22 23 24 25 26 27 28 29 30 31 32 33 34 35 36 37 38 39 40 41 42 43 44 45 46 47 48 49 50
000
FTUS43 KMKX 061743
TAFMKE
TAF
KMKE 061743Z 0618/0724 10008KT 5SM BR BKN006 OVC070
     FM061900 09008KT 6SM BR SCT010 BKN100
     FM062300 10006KT 6SM BR FEW010 SCT100
     FM070800 15004KT 5SM BR FEW003 SCT150 WS015/21030KT
     FM071500 18010G17KT P6SM FEW005 SCT250
     FM071900 19015G25KT P6SM SCT250=

USA.gov is the U.S. government's official web portal to all federal, state and local government web resources and services.